Terminal Aerodrome Forecast
Issued by NWS Corpus Christi, TX

Home | Current Version | Previous Version | Text Only | Print | Product List | Glossary On
Versions: 1 2 3 4 5 6 7 8 9 10 11 12 13
000
FTUS44 KCRP 231120
TAFVCT
TAF
KVCT 231120Z 2312/2412 16010KT P6SM SCT024
      TEMPO 2312/2315 BKN024
     FM231500 17015G22KT P6SM SCT035
     FM240200 15009KT P6SM SCT020
     FM240800 13005KT P6SM BKN015=

USA.gov is the U.S. government's official web portal to all federal, state and local government web resources and services.